Terminal Aerodrome Forecast
Issued by NWS

Home | Current Version | Previous Version | Text Only | Print | Product List | Glossary On
Versions: 1 2 3 4 5 6 7 8 9 10 11 12
278
FTUS44 KEWX 052332
TAFSSF
TAF
KSSF 052332Z 0600/0624 14010KT P6SM OVC070
     FM060900 32005KT P6SM OVC050 PROB30 0609/0612 5SM -RA
     FM061500 32012G22KT P6SM FEW050=

USA.gov is the U.S. government's official web portal to all federal, state and local government web resources and services.